Terminal Aerodrome Forecast
Issued by NWS Shreveport, LA

Home | Current Version | Previous Version | Text Only | Print | Product List | Glossary On
Versions: 1 2 3 4 5 6 7 8 9 10 11 12 13 14 15 16 17
000
FTUS44 KSHV 212300 RRA
TAFGGG
TAF
KGGG 212344Z 2200/2224 17005KT P6SM OVC017
     FM220800 17008KT P6SM OVC007
     FM221800 18008KT P6SM OVC010=

USA.gov is the U.S. government's official web portal to all federal, state and local government web resources and services.